sensor_id;sensor_type;location;lat;lon;timestamp;P1;durP1;ratioP1;P2;durP2;ratioP2
6292;SDS011;3179;54.350;10.102;2023-04-23T00:01:23;7.30;;;5.37;;
6292;SDS011;3179;54.350;10.102;2023-04-23T00:03:53;6.33;;;5.17;;
6292;SDS011;3179;54.350;10.102;2023-04-23T00:06:22;5.00;;;4.47;;
6292;SDS011;3179;54.350;10.102;2023-04-23T00:08:50;4.90;;;4.40;;
6292;SDS011;3179;54.350;10.102;2023-04-23T00:11:19;5.90;;;4.57;;
6292;SDS011;3179;54.350;10.102;2023-04-23T00:13:46;5.37;;;4.47;;
6292;SDS011;3179;54.350;10.102;2023-04-23T00:16:14;5.13;;;4.57;;
6292;SDS011;3179;54.350;10.102;2023-04-23T00:18:41;5.30;;;4.30;;
6292;SDS011;3179;54.350;10.102;2023-04-23T00:21:09;8.43;;;4.97;;
6292;SDS011;3179;54.350;10.102;2023-04-23T00:23:37;5.17;;;4.60;;
6292;SDS011;3179;54.350;10.102;2023-04-23T00:26:04;4.70;;;4.30;;
6292;SDS011;3179;54.350;10.102;2023-04-23T00:28:31;6.00;;;5.40;;
6292;SDS011;3179;54.350;10.102;2023-04-23T00:30:57;5.73;;;5.13;;
6292;SDS011;3179;54.350;10.102;2023-04-23T00:33:24;8.27;;;5.93;;
6292;SDS011;3179;54.350;10.102;2023-04-23T00:35:52;7.80;;;5.80;;
6292;SDS011;3179;54.350;10.102;2023-04-23T00:38:20;6.23;;;5.60;;
6292;SDS011;3179;54.350;10.102;2023-04-23T00:40:47;5.90;;;5.30;;
6292;SDS011;3179;54.350;10.102;2023-04-23T00:43:14;7.40;;;5.83;;
6292;SDS011;3179;54.350;10.102;2023-04-23T00:45:41;6.93;;;6.23;;
6292;SDS011;3179;54.350;10.102;2023-04-23T00:48:08;6.60;;;5.10;;
6292;SDS011;3179;54.350;10.102;2023-04-23T00:50:36;6.70;;;6.00;;
6292;SDS011;3179;54.350;10.102;2023-04-23T00:53:03;6.20;;;5.17;;
6292;SDS011;3179;54.350;10.102;2023-04-23T00:55:31;5.40;;;4.90;;
6292;SDS011;3179;54.350;10.102;2023-04-23T00:57:58;5.50;;;4.97;;
6292;SDS011;3179;54.350;10.102;2023-04-23T01:00:25;7.27;;;5.70;;
6292;SDS011;3179;54.350;10.102;2023-04-23T01:02:52;8.03;;;6.00;;
6292;SDS011;3179;54.350;10.102;2023-04-23T01:05:19;5.87;;;5.27;;
6292;SDS011;3179;54.350;10.102;2023-04-23T01:07:49;6.70;;;5.63;;
6292;SDS011;3179;54.350;10.102;2023-04-23T01:10:16;6.20;;;5.47;;
6292;SDS011;3179;54.350;10.102;2023-04-23T01:12:44;6.77;;;6.07;;
6292;SDS011;3179;54.350;10.102;2023-04-23T01:15:11;6.50;;;5.90;;
6292;SDS011;3179;54.350;10.102;2023-04-23T01:17:38;7.43;;;5.43;;
6292;SDS011;3179;54.350;10.102;2023-04-23T01:20:05;7.73;;;5.43;;
6292;SDS011;3179;54.350;10.102;2023-04-23T01:22:35;6.43;;;5.83;;
6292;SDS011;3179;54.350;10.102;2023-04-23T01:25:02;9.13;;;5.73;;
6292;SDS011;3179;54.350;10.102;2023-04-23T01:27:29;8.40;;;5.67;;
6292;SDS011;3179;54.350;10.102;2023-04-23T01:29:59;10.30;;;6.27;;
6292;SDS011;3179;54.350;10.102;2023-04-23T01:32:28;6.57;;;5.97;;
6292;SDS011;3179;54.350;10.102;2023-04-23T01:34:55;6.20;;;5.70;;
6292;SDS011;3179;54.350;10.102;2023-04-23T01:37:23;6.77;;;6.10;;
6292;SDS011;3179;54.350;10.102;2023-04-23T01:39:52;6.60;;;6.00;;
6292;SDS011;3179;54.350;10.102;2023-04-23T01:42:20;6.70;;;6.10;;
6292;SDS011;3179;54.350;10.102;2023-04-23T01:44:47;6.33;;;5.70;;
6292;SDS011;3179;54.350;10.102;2023-04-23T01:47:14;7.30;;;6.40;;
6292;SDS011;3179;54.350;10.102;2023-04-23T01:49:44;8.00;;;6.50;;
6292;SDS011;3179;54.350;10.102;2023-04-23T01:52:11;7.10;;;6.30;;
6292;SDS011;3179;54.350;10.102;2023-04-23T01:54:38;7.03;;;5.87;;
6292;SDS011;3179;54.350;10.102;2023-04-23T01:57:06;6.87;;;6.17;;
6292;SDS011;3179;54.350;10.102;2023-04-23T01:59:34;11.80;;;9.10;;
6292;SDS011;3179;54.350;10.102;2023-04-23T02:02:01;11.17;;;9.80;;
6292;SDS011;3179;54.350;10.102;2023-04-23T02:04:29;11.60;;;10.40;;
6292;SDS011;3179;54.350;10.102;2023-04-23T02:06:56;12.50;;;11.27;;
6292;SDS011;3179;54.350;10.102;2023-04-23T02:09:22;14.83;;;13.23;;
6292;SDS011;3179;54.350;10.102;2023-04-23T02:11:49;16.10;;;14.40;;
6292;SDS011;3179;54.350;10.102;2023-04-23T02:14:17;17.30;;;15.30;;
6292;SDS011;3179;54.350;10.102;2023-04-23T02:16:44;18.97;;;17.07;;
6292;SDS011;3179;54.350;10.102;2023-04-23T02:19:11;20.90;;;18.77;;
6292;SDS011;3179;54.350;10.102;2023-04-23T02:21:39;20.47;;;17.30;;
6292;SDS011;3179;54.350;10.102;2023-04-23T02:24:06;20.83;;;18.17;;
6292;SDS011;3179;54.350;10.102;2023-04-23T02:26:33;19.13;;;16.93;;
6292;SDS011;3179;54.350;10.102;2023-04-23T02:29:00;17.83;;;15.93;;
6292;SDS011;3179;54.350;10.102;2023-04-23T02:31:28;20.10;;;16.70;;
6292;SDS011;3179;54.350;10.102;2023-04-23T02:33:55;20.50;;;18.33;;
6292;SDS011;3179;54.350;10.102;2023-04-23T02:36:22;18.47;;;16.60;;
6292;SDS011;3179;54.350;10.102;2023-04-23T02:38:49;18.97;;;16.53;;
6292;SDS011;3179;54.350;10.102;2023-04-23T02:41:15;17.23;;;15.43;;
6292;SDS011;3179;54.350;10.102;2023-04-23T02:43:42;16.00;;;14.23;;
6292;SDS011;3179;54.350;10.102;2023-04-23T02:46:09;15.13;;;13.63;;
6292;SDS011;3179;54.350;10.102;2023-04-23T02:48:38;17.30;;;15.50;;
6292;SDS011;3179;54.350;10.102;2023-04-23T02:51:06;17.70;;;15.90;;
6292;SDS011;3179;54.350;10.102;2023-04-23T02:53:34;17.70;;;14.87;;
6292;SDS011;3179;54.350;10.102;2023-04-23T02:56:01;18.33;;;16.33;;
6292;SDS011;3179;54.350;10.102;2023-04-23T02:58:28;19.03;;;16.33;;
6292;SDS011;3179;54.350;10.102;2023-04-23T03:00:55;17.60;;;15.70;;
6292;SDS011;3179;54.350;10.102;2023-04-23T03:03:22;18.77;;;16.57;;
6292;SDS011;3179;54.350;10.102;2023-04-23T03:05:51;17.53;;;15.33;;
6292;SDS011;3179;54.350;10.102;2023-04-23T03:08:19;20.60;;;15.90;;
6292;SDS011;3179;54.350;10.102;2023-04-23T03:10:45;20.50;;;16.20;;
6292;SDS011;3179;54.350;10.102;2023-04-23T03:13:12;16.40;;;14.17;;
6292;SDS011;3179;54.350;10.102;2023-04-23T03:15:39;18.00;;;13.87;;
6292;SDS011;3179;54.350;10.102;2023-04-23T03:18:06;13.43;;;12.00;;
6292;SDS011;3179;54.350;10.102;2023-04-23T03:20:33;13.80;;;11.03;;
6292;SDS011;3179;54.350;10.102;2023-04-23T03:23:01;19.97;;;10.43;;
6292;SDS011;3179;54.350;10.102;2023-04-23T03:25:30;12.33;;;9.87;;
6292;SDS011;3179;54.350;10.102;2023-04-23T03:27:57;11.27;;;9.10;;
6292;SDS011;3179;54.350;10.102;2023-04-23T03:30:24;10.23;;;7.97;;
6292;SDS011;3179;54.350;10.102;2023-04-23T03:32:53;8.37;;;7.13;;
6292;SDS011;3179;54.350;10.102;2023-04-23T03:35:21;12.97;;;7.77;;
6292;SDS011;3179;54.350;10.102;2023-04-23T03:37:48;18.63;;;7.30;;
6292;SDS011;3179;54.350;10.102;2023-04-23T03:40:16;7.33;;;6.13;;
6292;SDS011;3179;54.350;10.102;2023-04-23T03:42:44;10.17;;;6.07;;
6292;SDS011;3179;54.350;10.102;2023-04-23T03:45:10;8.77;;;7.17;;
6292;SDS011;3179;54.350;10.102;2023-04-23T03:47:38;7.33;;;5.77;;
6292;SDS011;3179;54.350;10.102;2023-04-23T03:50:05;10.53;;;7.40;;
6292;SDS011;3179;54.350;10.102;2023-04-23T03:52:34;9.33;;;6.57;;
6292;SDS011;3179;54.350;10.102;2023-04-23T03:55:01;9.57;;;6.43;;
6292;SDS011;3179;54.350;10.102;2023-04-23T03:57:29;11.63;;;6.50;;
6292;SDS011;3179;54.350;10.102;2023-04-23T03:59:56;6.10;;;5.27;;
6292;SDS011;3179;54.350;10.102;2023-04-23T04:02:22;6.40;;;4.83;;
6292;SDS011;3179;54.350;10.102;2023-04-23T04:04:49;7.40;;;5.10;;
6292;SDS011;3179;54.350;10.102;2023-04-23T04:07:18;8.00;;;4.37;;
6292;SDS011;3179;54.350;10.102;2023-04-23T04:09:46;5.60;;;5.00;;
6292;SDS011;3179;54.350;10.102;2023-04-23T04:12:13;8.53;;;5.17;;
6292;SDS011;3179;54.350;10.102;2023-04-23T04:14:42;7.40;;;4.80;;
6292;SDS011;3179;54.350;10.102;2023-04-23T04:17:09;7.83;;;4.30;;
6292;SDS011;3179;54.350;10.102;2023-04-23T04:19:36;4.60;;;3.57;;
6292;SDS011;3179;54.350;10.102;2023-04-23T04:22:03;6.90;;;3.17;;
6292;SDS011;3179;54.350;10.102;2023-04-23T04:24:30;4.43;;;3.40;;
6292;SDS011;3179;54.350;10.102;2023-04-23T04:26:57;5.30;;;3.67;;
6292;SDS011;3179;54.350;10.102;2023-04-23T04:29:25;8.33;;;3.60;;
6292;SDS011;3179;54.350;10.102;2023-04-23T04:31:54;3.87;;;3.13;;
6292;SDS011;3179;54.350;10.102;2023-04-23T04:34:21;6.00;;;3.47;;
6292;SDS011;3179;54.350;10.102;2023-04-23T04:36:48;3.50;;;3.10;;
6292;SDS011;3179;54.350;10.102;2023-04-23T04:39:15;4.67;;;3.00;;
6292;SDS011;3179;54.350;10.102;2023-04-23T04:41:43;5.77;;;3.40;;
6292;SDS011;3179;54.350;10.102;2023-04-23T04:44:09;4.17;;;2.73;;
6292;SDS011;3179;54.350;10.102;2023-04-23T04:46:38;6.70;;;3.20;;
6292;SDS011;3179;54.350;10.102;2023-04-23T04:49:08;5.67;;;3.07;;
6292;SDS011;3179;54.350;10.102;2023-04-23T04:51:36;4.10;;;3.17;;
6292;SDS011;3179;54.350;10.102;2023-04-23T04:54:04;3.60;;;2.80;;
6292;SDS011;3179;54.350;10.102;2023-04-23T04:56:31;4.67;;;2.90;;
6292;SDS011;3179;54.350;10.102;2023-04-23T04:58:58;4.03;;;2.53;;
6292;SDS011;3179;54.350;10.102;2023-04-23T05:01:25;4.10;;;2.30;;
6292;SDS011;3179;54.350;10.102;2023-04-23T05:03:53;3.47;;;2.83;;
6292;SDS011;3179;54.350;10.102;2023-04-23T05:06:21;3.10;;;2.77;;
6292;SDS011;3179;54.350;10.102;2023-04-23T05:08:48;4.00;;;2.97;;
6292;SDS011;3179;54.350;10.102;2023-04-23T05:11:14;2.70;;;2.50;;
6292;SDS011;3179;54.350;10.102;2023-04-23T05:13:42;3.10;;;2.67;;
6292;SDS011;3179;54.350;10.102;2023-04-23T05:16:09;3.10;;;2.63;;
6292;SDS011;3179;54.350;10.102;2023-04-23T05:18:36;2.30;;;2.10;;
6292;SDS011;3179;54.350;10.102;2023-04-23T05:21:03;2.70;;;2.33;;
6292;SDS011;3179;54.350;10.102;2023-04-23T05:23:32;5.13;;;2.90;;
6292;SDS011;3179;54.350;10.102;2023-04-23T05:25:59;5.40;;;3.37;;
6292;SDS011;3179;54.350;10.102;2023-04-23T05:28:27;2.90;;;2.60;;
6292;SDS011;3179;54.350;10.102;2023-04-23T05:30:55;4.70;;;3.30;;
6292;SDS011;3179;54.350;10.102;2023-04-23T05:33:22;4.10;;;2.97;;
6292;SDS011;3179;54.350;10.102;2023-04-23T05:35:50;2.83;;;2.60;;
6292;SDS011;3179;54.350;10.102;2023-04-23T05:38:16;4.07;;;2.33;;
6292;SDS011;3179;54.350;10.102;2023-04-23T05:40:44;3.00;;;2.60;;
6292;SDS011;3179;54.350;10.102;2023-04-23T05:43:11;2.60;;;2.40;;
6292;SDS011;3179;54.350;10.102;2023-04-23T05:45:38;3.23;;;2.47;;
6292;SDS011;3179;54.350;10.102;2023-04-23T05:48:05;3.80;;;2.40;;
6292;SDS011;3179;54.350;10.102;2023-04-23T05:50:31;4.23;;;2.77;;
6292;SDS011;3179;54.350;10.102;2023-04-23T05:52:58;2.23;;;2.03;;
6292;SDS011;3179;54.350;10.102;2023-04-23T05:55:25;2.33;;;2.13;;
6292;SDS011;3179;54.350;10.102;2023-04-23T05:57:53;2.63;;;2.43;;
6292;SDS011;3179;54.350;10.102;2023-04-23T06:00:20;5.20;;;2.70;;
6292;SDS011;3179;54.350;10.102;2023-04-23T06:02:46;3.87;;;2.70;;
6292;SDS011;3179;54.350;10.102;2023-04-23T06:05:14;2.57;;;2.37;;
6292;SDS011;3179;54.350;10.102;2023-04-23T06:07:40;3.13;;;2.40;;
6292;SDS011;3179;54.350;10.102;2023-04-23T06:10:07;2.00;;;1.90;;
6292;SDS011;3179;54.350;10.102;2023-04-23T06:12:34;3.40;;;2.10;;
6292;SDS011;3179;54.350;10.102;2023-04-23T06:15:05;2.97;;;2.60;;
6292;SDS011;3179;54.350;10.102;2023-04-23T06:17:33;3.10;;;2.30;;
6292;SDS011;3179;54.350;10.102;2023-04-23T06:20:00;2.40;;;2.20;;
6292;SDS011;3179;54.350;10.102;2023-04-23T06:22:29;2.40;;;2.20;;
6292;SDS011;3179;54.350;10.102;2023-04-23T06:24:55;2.20;;;2.10;;
6292;SDS011;3179;54.350;10.102;2023-04-23T06:27:22;3.10;;;2.47;;
6292;SDS011;3179;54.350;10.102;2023-04-23T06:29:49;4.03;;;2.70;;
6292;SDS011;3179;54.350;10.102;2023-04-23T06:32:17;3.60;;;2.60;;
6292;SDS011;3179;54.350;10.102;2023-04-23T06:34:44;5.90;;;2.40;;
6292;SDS011;3179;54.350;10.102;2023-04-23T06:37:11;4.00;;;2.43;;
6292;SDS011;3179;54.350;10.102;2023-04-23T06:39:38;3.87;;;3.20;;
6292;SDS011;3179;54.350;10.102;2023-04-23T06:42:04;3.03;;;2.73;;
6292;SDS011;3179;54.350;10.102;2023-04-23T06:44:31;8.63;;;3.63;;
6292;SDS011;3179;54.350;10.102;2023-04-23T06:46:58;4.80;;;3.03;;
6292;SDS011;3179;54.350;10.102;2023-04-23T06:49:26;2.40;;;2.20;;
6292;SDS011;3179;54.350;10.102;2023-04-23T06:51:53;3.40;;;3.10;;
6292;SDS011;3179;54.350;10.102;2023-04-23T06:54:20;2.83;;;2.53;;
6292;SDS011;3179;54.350;10.102;2023-04-23T06:56:46;5.07;;;2.70;;
6292;SDS011;3179;54.350;10.102;2023-04-23T06:59:13;3.80;;;2.73;;
6292;SDS011;3179;54.350;10.102;2023-04-23T07:01:40;3.40;;;3.10;;
6292;SDS011;3179;54.350;10.102;2023-04-23T07:04:07;3.33;;;2.70;;
6292;SDS011;3179;54.350;10.102;2023-04-23T07:06:36;4.03;;;3.17;;
6292;SDS011;3179;54.350;10.102;2023-04-23T07:09:02;2.97;;;2.67;;
6292;SDS011;3179;54.350;10.102;2023-04-23T07:11:29;3.03;;;2.80;;
6292;SDS011;3179;54.350;10.102;2023-04-23T07:13:58;3.20;;;2.77;;
6292;SDS011;3179;54.350;10.102;2023-04-23T07:16:25;2.77;;;2.57;;
6292;SDS011;3179;54.350;10.102;2023-04-23T07:18:56;4.47;;;3.20;;
6292;SDS011;3179;54.350;10.102;2023-04-23T07:21:22;2.77;;;2.57;;
6292;SDS011;3179;54.350;10.102;2023-04-23T07:23:52;2.93;;;2.60;;
6292;SDS011;3179;54.350;10.102;2023-04-23T07:26:20;3.37;;;2.30;;
6292;SDS011;3179;54.350;10.102;2023-04-23T07:28:47;3.10;;;2.80;;
6292;SDS011;3179;54.350;10.102;2023-04-23T07:31:14;4.27;;;2.90;;
6292;SDS011;3179;54.350;10.102;2023-04-23T07:33:42;5.57;;;2.83;;
6292;SDS011;3179;54.350;10.102;2023-04-23T07:36:09;5.10;;;3.50;;
6292;SDS011;3179;54.350;10.102;2023-04-23T07:38:36;2.70;;;2.50;;
6292;SDS011;3179;54.350;10.102;2023-04-23T07:41:04;5.70;;;2.23;;
6292;SDS011;3179;54.350;10.102;2023-04-23T07:43:31;3.23;;;2.63;;
6292;SDS011;3179;54.350;10.102;2023-04-23T07:45:58;2.73;;;2.47;;
6292;SDS011;3179;54.350;10.102;2023-04-23T07:48:24;3.07;;;2.80;;
6292;SDS011;3179;54.350;10.102;2023-04-23T07:50:51;3.30;;;3.00;;
6292;SDS011;3179;54.350;10.102;2023-04-23T07:53:18;3.93;;;3.23;;
6292;SDS011;3179;54.350;10.102;2023-04-23T07:55:46;3.97;;;3.63;;
6292;SDS011;3179;54.350;10.102;2023-04-23T07:58:14;4.03;;;3.40;;
6292;SDS011;3179;54.350;10.102;2023-04-23T08:00:41;4.07;;;3.60;;
6292;SDS011;3179;54.350;10.102;2023-04-23T08:03:08;3.60;;;3.13;;
6292;SDS011;3179;54.350;10.102;2023-04-23T08:05:34;8.03;;;3.47;;
6292;SDS011;3179;54.350;10.102;2023-04-23T08:08:03;4.67;;;4.07;;
6292;SDS011;3179;54.350;10.102;2023-04-23T08:10:29;4.63;;;3.90;;
6292;SDS011;3179;54.350;10.102;2023-04-23T08:12:56;6.83;;;4.00;;
6292;SDS011;3179;54.350;10.102;2023-04-23T08:15:25;4.73;;;3.83;;
6292;SDS011;3179;54.350;10.102;2023-04-23T08:17:51;4.83;;;4.27;;
6292;SDS011;3179;54.350;10.102;2023-04-23T08:20:18;4.33;;;3.90;;
6292;SDS011;3179;54.350;10.102;2023-04-23T08:22:46;4.67;;;4.27;;
6292;SDS011;3179;54.350;10.102;2023-04-23T08:25:14;7.20;;;4.30;;
6292;SDS011;3179;54.350;10.102;2023-04-23T08:27:40;5.00;;;4.17;;
6292;SDS011;3179;54.350;10.102;2023-04-23T08:30:08;6.03;;;4.50;;
6292;SDS011;3179;54.350;10.102;2023-04-23T08:32:37;6.77;;;4.13;;
6292;SDS011;3179;54.350;10.102;2023-04-23T08:35:05;6.43;;;3.70;;
6292;SDS011;3179;54.350;10.102;2023-04-23T08:37:32;4.50;;;3.90;;
6292;SDS011;3179;54.350;10.102;2023-04-23T08:39:59;6.57;;;4.53;;
6292;SDS011;3179;54.350;10.102;2023-04-23T08:42:29;5.77;;;5.00;;
6292;SDS011;3179;54.350;10.102;2023-04-23T08:45:00;5.20;;;4.60;;
6292;SDS011;3179;54.350;10.102;2023-04-23T08:47:28;5.27;;;4.73;;
6292;SDS011;3179;54.350;10.102;2023-04-23T08:49:58;7.33;;;5.27;;
6292;SDS011;3179;54.350;10.102;2023-04-23T08:52:26;5.93;;;4.70;;
6292;SDS011;3179;54.350;10.102;2023-04-23T08:54:57;5.10;;;4.60;;
6292;SDS011;3179;54.350;10.102;2023-04-23T08:57:26;7.07;;;5.90;;
6292;SDS011;3179;54.350;10.102;2023-04-23T08:59:53;6.03;;;5.40;;
6292;SDS011;3179;54.350;10.102;2023-04-23T09:02:21;6.20;;;5.60;;
6292;SDS011;3179;54.350;10.102;2023-04-23T09:04:48;7.20;;;6.50;;
6292;SDS011;3179;54.350;10.102;2023-04-23T09:07:18;6.60;;;5.93;;
6292;SDS011;3179;54.350;10.102;2023-04-23T09:09:45;7.40;;;5.77;;
6292;SDS011;3179;54.350;10.102;2023-04-23T09:12:12;6.50;;;5.83;;
6292;SDS011;3179;54.350;10.102;2023-04-23T09:14:40;10.83;;;6.33;;
6292;SDS011;3179;54.350;10.102;2023-04-23T09:17:07;6.40;;;5.80;;
6292;SDS011;3179;54.350;10.102;2023-04-23T09:19:34;5.77;;;5.27;;
6292;SDS011;3179;54.350;10.102;2023-04-23T09:22:03;8.87;;;7.10;;
6292;SDS011;3179;54.350;10.102;2023-04-23T09:24:31;6.43;;;5.53;;
6292;SDS011;3179;54.350;10.102;2023-04-23T09:26:59;7.33;;;5.60;;
6292;SDS011;3179;54.350;10.102;2023-04-23T09:29:26;5.90;;;5.30;;
6292;SDS011;3179;54.350;10.102;2023-04-23T09:31:54;6.93;;;6.23;;
6292;SDS011;3179;54.350;10.102;2023-04-23T09:34:22;6.60;;;5.83;;
6292;SDS011;3179;54.350;10.102;2023-04-23T09:36:50;8.30;;;5.93;;
6292;SDS011;3179;54.350;10.102;2023-04-23T09:39:18;7.80;;;5.60;;
6292;SDS011;3179;54.350;10.102;2023-04-23T09:41:48;7.33;;;6.60;;
6292;SDS011;3179;54.350;10.102;2023-04-23T09:44:17;7.83;;;5.70;;
6292;SDS011;3179;54.350;10.102;2023-04-23T09:46:46;9.43;;;5.50;;
6292;SDS011;3179;54.350;10.102;2023-04-23T09:49:13;6.20;;;5.60;;
6292;SDS011;3179;54.350;10.102;2023-04-23T09:51:41;7.93;;;5.40;;
6292;SDS011;3179;54.350;10.102;2023-04-23T09:54:09;7.80;;;6.00;;
6292;SDS011;3179;54.350;10.102;2023-04-23T09:56:37;6.20;;;5.60;;
6292;SDS011;3179;54.350;10.102;2023-04-23T09:59:11;5.50;;;4.83;;
6292;SDS011;3179;54.350;10.102;2023-04-23T10:01:45;6.20;;;5.20;;
6292;SDS011;3179;54.350;10.102;2023-04-23T10:04:12;5.57;;;5.03;;
6292;SDS011;3179;54.350;10.102;2023-04-23T10:06:43;7.43;;;5.30;;
6292;SDS011;3179;54.350;10.102;2023-04-23T10:09:10;8.40;;;6.00;;
6292;SDS011;3179;54.350;10.102;2023-04-23T10:11:37;6.73;;;5.00;;
6292;SDS011;3179;54.350;10.102;2023-04-23T10:14:04;5.07;;;4.57;;
6292;SDS011;3179;54.350;10.102;2023-04-23T10:16:34;6.33;;;5.20;;
6292;SDS011;3179;54.350;10.102;2023-04-23T10:19:02;8.27;;;6.00;;
6292;SDS011;3179;54.350;10.102;2023-04-23T10:21:31;10.33;;;5.67;;
6292;SDS011;3179;54.350;10.102;2023-04-23T10:23:59;6.00;;;5.07;;
6292;SDS011;3179;54.350;10.102;2023-04-23T10:26:28;5.60;;;4.50;;
6292;SDS011;3179;54.350;10.102;2023-04-23T10:28:57;5.73;;;5.10;;
6292;SDS011;3179;54.350;10.102;2023-04-23T10:31:25;4.60;;;4.20;;
6292;SDS011;3179;54.350;10.102;2023-04-23T10:33:55;5.10;;;4.60;;
6292;SDS011;3179;54.350;10.102;2023-04-23T10:36:22;4.80;;;4.30;;
6292;SDS011;3179;54.350;10.102;2023-04-23T10:38:51;6.03;;;4.80;;
6292;SDS011;3179;54.350;10.102;2023-04-23T10:41:20;5.70;;;4.33;;
6292;SDS011;3179;54.350;10.102;2023-04-23T10:43:53;7.73;;;4.20;;
6292;SDS011;3179;54.350;10.102;2023-04-23T10:46:26;5.33;;;4.40;;
6292;SDS011;3179;54.350;10.102;2023-04-23T10:49:05;6.50;;;5.00;;
6292;SDS011;3179;54.350;10.102;2023-04-23T10:51:33;5.83;;;5.30;;
6292;SDS011;3179;54.350;10.102;2023-04-23T10:54:01;5.07;;;4.57;;
6292;SDS011;3179;54.350;10.102;2023-04-23T10:56:29;4.87;;;4.10;;
6292;SDS011;3179;54.350;10.102;2023-04-23T10:58:55;5.50;;;4.80;;
6292;SDS011;3179;54.350;10.102;2023-04-23T11:01:23;6.73;;;4.53;;
6292;SDS011;3179;54.350;10.102;2023-04-23T11:03:50;7.97;;;4.60;;
6292;SDS011;3179;54.350;10.102;2023-04-23T11:06:21;5.50;;;3.93;;
6292;SDS011;3179;54.350;10.102;2023-04-23T11:09:26;5.30;;;4.30;;
6292;SDS011;3179;54.350;10.102;2023-04-23T11:11:54;5.50;;;4.23;;
6292;SDS011;3179;54.350;10.102;2023-04-23T11:14:31;5.30;;;3.90;;
6292;SDS011;3179;54.350;10.102;2023-04-23T11:17:00;3.90;;;3.60;;
6292;SDS011;3179;54.350;10.102;2023-04-23T11:19:26;4.40;;;4.00;;
6292;SDS011;3179;54.350;10.102;2023-04-23T11:21:59;4.03;;;3.63;;
6292;SDS011;3179;54.350;10.102;2023-04-23T11:24:27;6.10;;;4.00;;
6292;SDS011;3179;54.350;10.102;2023-04-23T11:26:56;4.43;;;3.80;;
6292;SDS011;3179;54.350;10.102;2023-04-23T11:29:24;3.90;;;3.60;;
6292;SDS011;3179;54.350;10.102;2023-04-23T11:31:52;6.20;;;4.23;;
6292;SDS011;3179;54.350;10.102;2023-04-23T11:34:20;3.90;;;3.50;;
6292;SDS011;3179;54.350;10.102;2023-04-23T11:36:48;3.80;;;3.50;;
6292;SDS011;3179;54.350;10.102;2023-04-23T11:39:19;5.30;;;3.87;;
6292;SDS011;3179;54.350;10.102;2023-04-23T11:41:48;4.30;;;3.77;;
6292;SDS011;3179;54.350;10.102;2023-04-23T11:44:18;5.10;;;4.60;;
6292;SDS011;3179;54.350;10.102;2023-04-23T11:46:46;3.90;;;3.60;;
6292;SDS011;3179;54.350;10.102;2023-04-23T11:49:13;4.00;;;3.70;;
6292;SDS011;3179;54.350;10.102;2023-04-23T11:51:41;4.87;;;4.13;;
6292;SDS011;3179;54.350;10.102;2023-04-23T11:54:08;4.80;;;4.00;;
6292;SDS011;3179;54.350;10.102;2023-04-23T11:56:37;4.70;;;4.23;;
6292;SDS011;3179;54.350;10.102;2023-04-23T11:59:05;4.03;;;3.60;;
6292;SDS011;3179;54.350;10.102;2023-04-23T12:01:38;4.20;;;3.83;;
6292;SDS011;3179;54.350;10.102;2023-04-23T12:04:09;4.60;;;3.70;;
6292;SDS011;3179;54.350;10.102;2023-04-23T12:06:37;5.13;;;3.90;;
6292;SDS011;3179;54.350;10.102;2023-04-23T12:09:06;3.70;;;3.40;;
6292;SDS011;3179;54.350;10.102;2023-04-23T12:11:34;5.50;;;4.07;;
6292;SDS011;3179;54.350;10.102;2023-04-23T12:14:02;3.67;;;3.30;;
6292;SDS011;3179;54.350;10.102;2023-04-23T12:16:33;4.17;;;3.77;;
6292;SDS011;3179;54.350;10.102;2023-04-23T12:19:01;4.87;;;4.23;;
6292;SDS011;3179;54.350;10.102;2023-04-23T12:21:28;3.90;;;3.50;;
6292;SDS011;3179;54.350;10.102;2023-04-23T12:23:55;5.47;;;3.73;;
6292;SDS011;3179;54.350;10.102;2023-04-23T12:26:23;4.07;;;3.67;;
6292;SDS011;3179;54.350;10.102;2023-04-23T12:28:51;3.30;;;3.00;;
6292;SDS011;3179;54.350;10.102;2023-04-23T12:31:21;3.70;;;3.40;;
6292;SDS011;3179;54.350;10.102;2023-04-23T12:33:52;3.57;;;3.03;;
6292;SDS011;3179;54.350;10.102;2023-04-23T12:36:25;6.20;;;5.33;;
6292;SDS011;3179;54.350;10.102;2023-04-23T12:38:54;5.17;;;4.43;;
6292;SDS011;3179;54.350;10.102;2023-04-23T12:41:53;4.63;;;4.23;;
6292;SDS011;3179;54.350;10.102;2023-04-23T12:44:22;5.10;;;4.60;;
6292;SDS011;3179;54.350;10.102;2023-04-23T12:46:52;4.70;;;4.30;;
6292;SDS011;3179;54.350;10.102;2023-04-23T12:49:20;5.70;;;5.03;;
6292;SDS011;3179;54.350;10.102;2023-04-23T12:51:47;5.70;;;4.80;;
6292;SDS011;3179;54.350;10.102;2023-04-23T12:54:14;5.27;;;4.00;;
6292;SDS011;3179;54.350;10.102;2023-04-23T12:56:40;5.00;;;4.60;;
6292;SDS011;3179;54.350;10.102;2023-04-23T12:59:07;6.23;;;4.67;;
6292;SDS011;3179;54.350;10.102;2023-04-23T13:01:34;4.93;;;4.10;;
6292;SDS011;3179;54.350;10.102;2023-04-23T13:04:02;4.73;;;4.33;;
6292;SDS011;3179;54.350;10.102;2023-04-23T13:06:29;4.30;;;3.90;;
6292;SDS011;3179;54.350;10.102;2023-04-23T13:08:56;3.83;;;3.50;;
6292;SDS011;3179;54.350;10.102;2023-04-23T13:11:24;4.53;;;3.70;;
6292;SDS011;3179;54.350;10.102;2023-04-23T13:13:51;5.03;;;4.47;;
6292;SDS011;3179;54.350;10.102;2023-04-23T13:16:18;4.87;;;4.37;;
6292;SDS011;3179;54.350;10.102;2023-04-23T13:18:45;4.77;;;4.00;;
6292;SDS011;3179;54.350;10.102;2023-04-23T13:21:13;4.80;;;4.40;;
6292;SDS011;3179;54.350;10.102;2023-04-23T13:23:40;4.67;;;4.07;;
6292;SDS011;3179;54.350;10.102;2023-04-23T13:26:07;6.27;;;3.97;;
6292;SDS011;3179;54.350;10.102;2023-04-23T13:28:34;4.33;;;3.93;;
6292;SDS011;3179;54.350;10.102;2023-04-23T13:31:01;5.23;;;4.73;;
6292;SDS011;3179;54.350;10.102;2023-04-23T13:33:29;4.70;;;4.20;;
6292;SDS011;3179;54.350;10.102;2023-04-23T13:35:56;4.57;;;4.17;;
6292;SDS011;3179;54.350;10.102;2023-04-23T13:38:24;4.50;;;4.10;;
6292;SDS011;3179;54.350;10.102;2023-04-23T13:40:52;4.60;;;3.67;;
6292;SDS011;3179;54.350;10.102;2023-04-23T13:43:18;3.90;;;3.60;;
6292;SDS011;3179;54.350;10.102;2023-04-23T13:45:46;6.37;;;4.50;;
6292;SDS011;3179;54.350;10.102;2023-04-23T13:48:14;4.70;;;4.30;;
6292;SDS011;3179;54.350;10.102;2023-04-23T13:50:41;4.50;;;4.10;;
6292;SDS011;3179;54.350;10.102;2023-04-23T13:53:08;4.57;;;4.17;;
6292;SDS011;3179;54.350;10.102;2023-04-23T13:55:38;5.30;;;4.60;;
6292;SDS011;3179;54.350;10.102;2023-04-23T13:58:05;4.77;;;4.37;;
6292;SDS011;3179;54.350;10.102;2023-04-23T14:00:32;3.90;;;3.60;;
6292;SDS011;3179;54.350;10.102;2023-04-23T14:02:59;4.20;;;3.80;;
6292;SDS011;3179;54.350;10.102;2023-04-23T14:05:26;4.80;;;4.40;;
6292;SDS011;3179;54.350;10.102;2023-04-23T14:07:52;6.57;;;4.30;;
6292;SDS011;3179;54.350;10.102;2023-04-23T14:10:19;4.47;;;4.00;;
6292;SDS011;3179;54.350;10.102;2023-04-23T14:12:47;5.37;;;4.67;;
6292;SDS011;3179;54.350;10.102;2023-04-23T14:15:14;4.10;;;3.80;;
6292;SDS011;3179;54.350;10.102;2023-04-23T14:17:41;7.97;;;4.63;;
6292;SDS011;3179;54.350;10.102;2023-04-23T14:20:09;4.97;;;4.40;;
6292;SDS011;3179;54.350;10.102;2023-04-23T14:22:39;7.17;;;5.07;;
6292;SDS011;3179;54.350;10.102;2023-04-23T14:25:07;5.17;;;4.67;;
6292;SDS011;3179;54.350;10.102;2023-04-23T14:27:38;4.80;;;4.30;;
6292;SDS011;3179;54.350;10.102;2023-04-23T14:30:13;4.50;;;4.10;;
6292;SDS011;3179;54.350;10.102;2023-04-23T14:32:41;4.03;;;3.40;;
6292;SDS011;3179;54.350;10.102;2023-04-23T14:35:09;4.93;;;4.43;;
6292;SDS011;3179;54.350;10.102;2023-04-23T14:37:37;7.03;;;4.33;;
6292;SDS011;3179;54.350;10.102;2023-04-23T14:40:07;6.47;;;5.00;;
6292;SDS011;3179;54.350;10.102;2023-04-23T14:42:34;5.00;;;4.50;;
6292;SDS011;3179;54.350;10.102;2023-04-23T14:45:01;5.50;;;4.30;;
6292;SDS011;3179;54.350;10.102;2023-04-23T14:47:30;8.37;;;6.40;;
6292;SDS011;3179;54.350;10.102;2023-04-23T14:49:56;7.13;;;6.07;;
6292;SDS011;3179;54.350;10.102;2023-04-23T14:52:25;5.00;;;4.50;;
6292;SDS011;3179;54.350;10.102;2023-04-23T14:54:51;5.53;;;4.90;;
6292;SDS011;3179;54.350;10.102;2023-04-23T14:57:19;5.23;;;4.50;;
6292;SDS011;3179;54.350;10.102;2023-04-23T14:59:46;6.00;;;5.40;;
6292;SDS011;3179;54.350;10.102;2023-04-23T15:02:13;7.03;;;4.27;;